Time;durP1;ratioP1;P1;durP2;ratioP2;P2;SDS_P1;SDS_P2;PMS_P1;PMS_P2;Temp;Humidity;BMP_temperature;BMP_pressure;BME280_temperature;BME280_humidity;BME280_pressure;Samples;Min_cycle;Max_cycle;Signal;HPM_P1;HPM_P2
2022/08/13 00:01:36;;;;;;;3.92;1.50;;;23.30;59.10;;;;;;7341197;19;109769;-77
2022/08/13 00:04:12;;;;;;;3.75;1.50;;;23.30;58.50;;;;;;7340375;19;110020;-77
2022/08/13 00:09:24;;;;;;;6.65;1.65;;;23.20;58.50;;;;;;7339461;19;109569;-77
2022/08/13 00:15:14;;;;;;;3.40;1.67;;;23.20;58.70;;;;;;7338062;19;112824;-77
2022/08/13 00:17:45;;;;;;;3.70;1.63;;;23.10;58.70;;;;;;7345691;19;110922;-78
2022/08/13 00:20:41;;;;;;;6.07;1.92;;;23.10;58.90;;;;;;7337974;19;111250;-77
2022/08/13 00:23:18;;;;;;;;;;;23.00;58.90;;;;;;7339982;19;109562;-77
2022/08/13 00:25:53;;;;;;;4.70;1.60;;;22.90;59.20;;;;;;7342558;19;109809;-77
2022/08/13 00:28:23;;;;;;;7.70;1.88;;;22.90;59.20;;;;;;7336367;19;113905;-77
2022/08/13 00:30:51;;;;;;;4.18;1.58;;;22.90;59.20;;;;;;7339846;19;109518;-77
2022/08/13 00:33:22;;;;;;;4.10;2.00;;;22.80;59.80;;;;;;7340419;19;113730;-78
2022/08/13 00:36:09;;;;;;;6.30;1.67;;;22.80;59.80;;;;;;7339206;19;112378;-78
2022/08/13 00:38:36;;;;;;;5.22;1.77;;;22.70;59.90;;;;;;7339088;19;109448;-77
2022/08/13 00:41:04;;;;;;;7.07;1.80;;;22.70;59.90;;;;;;7344285;19;110448;-78
2022/08/13 00:43:33;;;;;;;3.50;1.55;;;22.70;60.20;;;;;;7337073;19;110701;-77
2022/08/13 00:46:02;;;;;;;6.45;1.65;;;22.60;60.30;;;;;;7339655;19;110534;-78
2022/08/13 00:48:43;;;;;;;4.85;1.50;;;22.60;60.30;;;;;;7338952;19;111300;-78
2022/08/13 00:51:24;;;;;;;2.42;1.60;;;22.50;60.10;;;;;;7338303;19;109504;-78
2022/08/13 00:54:17;;;;;;;5.40;1.83;;;22.50;60.20;;;;;;7338858;19;111728;-77
2022/08/13 00:56:45;;;;;;;7.55;1.88;;;22.40;60.20;;;;;;7337445;19;111144;-78
2022/08/13 00:59:13;;;;;;;3.63;1.75;;;22.40;60.60;;;;;;7339145;19;109660;-78
2022/08/13 01:01:46;;;;;;;4.60;1.70;;;22.40;60.70;;;;;;7339847;19;110916;-77
2022/08/13 01:04:20;;;;;;;4.70;1.70;;;22.30;60.90;;;;;;7345612;19;111234;-78
2022/08/13 01:06:55;;;;;;;7.28;1.80;;;22.20;61.00;;;;;;7337903;19;110454;-77
2022/08/13 01:09:29;;;;;;;7.20;1.95;;;22.20;61.20;;;;;;7338164;19;111259;-78
2022/08/13 01:12:19;;;;;;;4.80;1.70;;;22.20;61.40;;;;;;7339063;19;110114;-77
2022/08/13 01:14:55;;;;;;;2.90;1.75;;;22.10;61.30;;;;;;7336588;19;109366;-78
2022/08/13 01:17:24;;;;;;;4.95;1.70;;;22.10;61.40;;;;;;7338703;19;110525;-78
2022/08/13 01:20:20;;;;;;;5.65;1.60;;;22.10;61.50;;;;;;7338162;19;110036;-77
2022/08/13 01:23:04;;;;;;;11.10;2.15;;;22.00;61.50;;;;;;7338871;19;110810;-77
2022/08/13 01:25:32;;;;;;;5.32;1.90;;;22.00;61.90;;;;;;7339112;19;111231;-77
2022/08/13 01:28:22;;;;;;;4.57;1.80;;;21.90;61.70;;;;;;7340260;19;109883;-77
2022/08/13 01:30:52;;;;;;;4.25;1.73;;;21.90;61.80;;;;;;7337462;19;111643;-77
2022/08/13 01:33:20;;;;;;;3.75;1.73;;;21.90;62.00;;;;;;7337783;19;109519;-77
2022/08/13 01:35:52;;;;;;;3.47;1.52;;;21.90;62.40;;;;;;7335675;19;110860;-77
2022/08/13 01:38:23;;;;;;;3.38;1.60;;;21.80;62.40;;;;;;7344641;19;111529;-77
2022/08/13 01:40:55;;;;;;;7.25;2.35;;;21.80;62.60;;;;;;7343606;19;109475;-77
2022/08/13 01:43:28;;;;;;;4.30;2.03;;;21.70;62.60;;;;;;7340673;19;111220;-77
2022/08/13 01:45:56;;;;;;;6.75;1.90;;;21.70;62.70;;;;;;7343177;19;109658;-77
2022/08/13 01:51:21;;;;;;;2.63;1.77;;;21.60;63.30;;;;;;7350425;19;109789;-77
2022/08/13 01:53:55;;;;;;;5.88;2.00;;;21.60;63.40;;;;;;7344715;19;109729;-77
2022/08/13 01:56:24;;;;;;;3.10;1.85;;;21.50;63.30;;;;;;7345572;19;110731;-77
2022/08/13 01:59:01;;;;;;;4.75;1.92;;;21.50;63.40;;;;;;7344817;19;111389;-78
2022/08/13 02:01:36;;;;;;;2.67;2.20;;;21.50;63.70;;;;;;7345116;19;109319;-77
2022/08/13 02:04:13;;;;;;;7.15;1.90;;;21.40;63.80;;;;;;7342182;19;114067;-77
2022/08/13 02:06:49;;;;;;;4.95;2.15;;;21.40;63.60;;;;;;7344123;19;111293;-77
2022/08/13 02:09:23;;;;;;;6.72;2.38;;;21.40;64.40;;;;;;7342855;19;110038;-77
2022/08/13 02:12:13;;;;;;;2.90;2.10;;;21.30;64.50;;;;;;7349645;19;112017;-78
2022/08/13 02:15:03;;;;;;;3.60;2.38;;;21.30;64.60;;;;;;7340956;19;109352;-78
2022/08/13 02:17:33;;;;;;;4.28;2.67;;;21.30;65.00;;;;;;7343278;19;109677;-77
2022/08/13 02:20:20;;;;;;;3.47;2.10;;;21.30;64.50;;;;;;7342954;19;112907;-77
2022/08/13 02:22:49;;;;;;;3.88;2.30;;;21.20;65.10;;;;;;7342326;19;109175;-77
2022/08/13 02:25:20;;;;;;;4.55;2.10;;;21.10;66.00;;;;;;7343211;19;111783;-77
2022/08/13 02:27:48;;;;;;;9.27;2.50;;;21.00;66.60;;;;;;7341141;19;115163;-77
2022/08/13 02:30:27;;;;;;;6.10;2.00;;;20.90;66.40;;;;;;7342652;19;110807;-77
2022/08/13 02:32:55;;;;;;;4.60;2.35;;;20.90;66.50;;;;;;7342867;19;110280;-77
2022/08/13 02:35:23;;;;;;;9.93;3.03;;;20.90;66.60;;;;;;7347825;19;111384;-77
2022/08/13 02:38:05;;;;;;;5.53;2.05;;;20.90;66.60;;;;;;7343529;19;109912;-77
2022/08/13 02:43:35;;;;;;;3.03;2.17;;;20.70;67.40;;;;;;7340622;19;109492;-77
2022/08/13 02:46:21;;;;;;;8.45;2.28;;;20.70;68.00;;;;;;7343418;19;110315;-78
2022/08/13 02:48:50;;;;;;;3.00;2.20;;;20.60;67.90;;;;;;7339521;19;114033;-78
2022/08/13 02:51:20;;;;;;;5.38;2.30;;;20.60;67.70;;;;;;7342382;19;110297;-78
2022/08/13 02:54:07;;;;;;;5.97;2.03;;;20.60;67.80;;;;;;7342231;19;112858;-78
2022/08/13 02:56:36;;;;;;;3.88;2.50;;;20.50;68.10;;;;;;7342454;19;111905;-78
2022/08/13 02:59:08;;;;;;;7.95;2.38;;;20.50;68.20;;;;;;7347247;19;109752;-78
2022/08/13 03:01:56;;;;;;;7.43;2.55;;;20.50;68.20;;;;;;7342147;19;112822;-78
2022/08/13 03:04:24;;;;;;;4.32;2.10;;;20.50;68.40;;;;;;7339981;19;109995;-78
2022/08/13 03:06:59;;;;;;;3.42;2.13;;;20.40;68.90;;;;;;7341709;19;110415;-77
2022/08/13 03:09:28;;;;;;;4.45;2.28;;;20.40;69.20;;;;;;7342364;19;111653;-78
2022/08/13 03:11:58;;;;;;;6.50;2.40;;;20.20;69.90;;;;;;7342606;19;109574;-78
2022/08/13 03:14:31;;;;;;;3.97;2.22;;;20.10;70.40;;;;;;7339044;19;110526;-78
2022/08/13 03:16:59;;;;;;;10.65;2.83;;;20.10;70.10;;;;;;7341859;19;113970;-78
2022/08/13 03:19:27;;;;;;;12.27;2.70;;;20.10;70.00;;;;;;7342806;19;110115;-78
2022/08/13 03:21:54;;;;;;;11.50;2.92;;;20.10;69.90;;;;;;7347648;19;113532;-78
2022/08/13 03:24:26;;;;;;;10.43;2.47;;;20.10;70.00;;;;;;7342121;19;109579;-77
2022/08/13 03:26:58;;;;;;;6.97;2.53;;;20.00;70.70;;;;;;7342459;19;110499;-78
2022/08/13 03:29:26;;;;;;;8.40;2.85;;;19.90;71.60;;;;;;7338109;19;111229;-78
2022/08/13 03:32:13;;;;;;;10.48;3.03;;;19.90;71.20;;;;;;7339323;19;109625;-78
2022/08/13 03:34:43;;;;;;;5.53;2.60;;;19.70;71.80;;;;;;7340063;19;110539;-78
2022/08/13 03:37:10;;;;;;;7.65;2.58;;;19.60;71.80;;;;;;7340544;19;111472;-78
2022/08/13 03:39:40;;;;;;;4.70;2.40;;;19.60;72.60;;;;;;7341592;19;111203;-78
2022/08/13 03:42:09;;;;;;;11.65;2.75;;;19.60;72.50;;;;;;7340928;19;109820;-78
2022/08/13 03:44:40;;;;;;;8.40;3.28;;;19.60;72.20;;;;;;7346737;19;111173;-78
2022/08/13 03:47:07;;;;;;;7.88;2.88;;;19.60;72.90;;;;;;7340743;19;109485;-78
2022/08/13 03:49:54;;;;;;;11.82;2.90;;;19.50;72.80;;;;;;7340043;19;112811;-78
2022/08/13 03:52:22;;;;;;;8.68;3.40;;;19.50;72.40;;;;;;7340071;19;109345;-78
2022/08/13 03:55:00;;;;;;;;;;;19.60;72.30;;;;;;7341198;19;109361;-78
2022/08/13 03:57:27;;;;;;;4.80;3.58;;;19.50;72.30;;;;;;7344133;19;110103;-78
2022/08/13 03:59:55;;;;;;;8.00;3.30;;;19.50;72.20;;;;;;7339824;19;109432;-78
2022/08/13 04:02:39;;;;;;;12.23;3.30;;;19.50;72.50;;;;;;7338931;19;109807;-78
2022/08/13 04:05:16;;;;;;;7.32;3.33;;;19.50;73.00;;;;;;7340778;19;111190;-78
2022/08/13 04:08:04;;;;;;;5.82;3.38;;;19.40;73.90;;;;;;7345080;19;109330;-78
2022/08/13 04:10:40;;;;;;;6.32;3.63;;;19.40;74.00;;;;;;7339206;19;110952;-78
2022/08/13 04:13:19;;;;;;;7.72;3.70;;;19.40;73.60;;;;;;7340753;19;110247;-78
2022/08/13 04:16:18;;;;;;;6.20;3.65;;;19.40;73.20;;;;;;7337991;19;112472;-78
2022/08/13 04:18:47;;;;;;;7.35;3.47;;;19.40;73.40;;;;;;7338863;19;111060;-78
2022/08/13 04:21:17;;;;;;;9.55;3.92;;;19.30;73.90;;;;;;7338480;19;109491;-78
2022/08/13 04:23:50;;;;;;;8.50;4.10;;;19.30;75.60;;;;;;7339246;19;109751;-78
2022/08/13 04:26:23;;;;;;;10.05;4.25;;;19.20;75.90;;;;;;7338935;19;111221;-78
2022/08/13 04:29:02;;;;;;;9.25;3.95;;;19.20;75.90;;;;;;7342228;19;109430;-78
2022/08/13 04:31:31;;;;;;;13.13;4.28;;;19.10;75.90;;;;;;7337424;19;112174;-78
2022/08/13 04:34:16;;;;;;;21.15;4.28;;;19.10;76.00;;;;;;7339343;19;109608;-78
2022/08/13 04:37:04;;;;;;;12.50;3.90;;;19.00;76.00;;;;;;7339382;19;112874;-77
2022/08/13 04:39:32;;;;;;;7.43;4.45;;;19.00;75.40;;;;;;7339489;19;111415;-78
2022/08/13 04:42:19;;;;;;;14.70;4.40;;;19.10;75.70;;;;;;7336998;19;109624;-78
2022/08/13 04:44:58;;;;;;;19.90;4.70;;;19.00;76.40;;;;;;7340159;19;110460;-78
2022/08/13 04:47:29;;;;;;;20.02;4.60;;;19.00;76.70;;;;;;7339500;19;110100;-78
2022/08/13 04:49:56;;;;;;;13.25;4.47;;;19.00;76.60;;;;;;7337323;19;109819;-78
2022/08/13 04:52:25;;;;;;;10.98;4.25;;;19.10;77.10;;;;;;7343959;19;111907;-78
2022/08/13 04:55:06;;;;;;;34.55;5.80;;;19.10;76.70;;;;;;7339520;19;109153;-77
2022/08/13 04:57:41;;;;;;;17.67;4.93;;;19.10;76.60;;;;;;7339914;19;110607;-78
2022/08/13 05:00:29;;;;;;;11.32;4.85;;;19.20;77.10;;;;;;7339666;19;111170;-78
2022/08/13 05:02:56;;;;;;;15.05;4.95;;;19.20;76.80;;;;;;7339327;19;110262;-78
2022/08/13 05:05:24;;;;;;;27.00;5.20;;;19.20;76.90;;;;;;7339239;19;110481;-77
2022/08/13 05:07:53;;;;;;;19.13;5.70;;;19.30;76.50;;;;;;7337637;19;110116;-78
2022/08/13 05:10:20;;;;;;;13.80;5.18;;;19.30;76.60;;;;;;7337966;19;109349;-78
2022/08/13 05:13:03;;;;;;;12.35;4.95;;;19.30;76.40;;;;;;7338557;19;110466;-78
2022/08/13 05:15:36;;;;;;;7.53;4.90;;;19.40;76.30;;;;;;7341245;19;111317;-77
2022/08/13 05:18:15;;;;;;;15.77;4.78;;;19.40;76.00;;;;;;7337832;19;110032;-77
2022/08/13 05:20:55;;;;;;;11.05;5.00;;;19.40;76.90;;;;;;7337742;19;110766;-78
2022/08/13 05:23:23;;;;;;;10.52;4.63;;;19.40;77.60;;;;;;7336399;19;109513;-77
2022/08/13 05:26:11;;;;;;;14.70;5.18;;;19.40;78.20;;;;;;7338099;19;111265;-77
2022/08/13 05:29:06;;;;;;;12.45;4.97;;;19.50;78.50;;;;;;7336377;19;112754;-78
2022/08/13 05:31:36;;;;;;;5.72;5.07;;;19.60;79.10;;;;;;7339494;19;109675;-77
2022/08/13 05:34:25;;;;;;;9.90;5.28;;;19.60;78.60;;;;;;7339311;19;112400;-77
2022/08/13 05:36:57;;;;;;;9.38;4.38;;;19.70;79.60;;;;;;7337612;19;111190;-77
2022/08/13 05:39:45;;;;;;;12.15;5.32;;;19.80;80.30;;;;;;7342767;19;109527;-77
2022/08/13 05:42:16;;;;;;;17.05;5.00;;;19.90;79.70;;;;;;7336581;19;111421;-77
2022/08/13 05:44:50;;;;;;;10.32;4.68;;;19.90;80.20;;;;;;7335380;19;109727;-77
2022/08/13 05:47:19;;;;;;;26.27;5.72;;;20.00;80.10;;;;;;7338001;19;110490;-77
2022/08/13 05:49:52;;;;;;;14.93;5.60;;;20.10;79.80;;;;;;7334742;19;110362;-77
2022/08/13 05:52:30;;;;;;;15.48;5.38;;;20.20;80.10;;;;;;7337469;19;109466;-77
2022/08/13 05:55:05;;;;;;;9.02;5.50;;;20.30;80.80;;;;;;7338006;19;110042;-77
2022/08/13 05:57:52;;;;;;;10.38;5.10;;;20.30;80.60;;;;;;7337389;19;113647;-77
2022/08/13 06:06:14;;;;;;;18.58;5.50;;;20.80;81.00;;;;;;7337006;19;110150;-77
2022/08/13 06:08:51;;;;;;;32.05;6.05;;;20.90;80.80;;;;;;7337306;19;109600;-79
2022/08/13 06:11:18;;;;;;;24.67;5.90;;;21.00;80.80;;;;;;7336821;19;110138;-80
2022/08/13 06:14:05;;;;;;;17.10;5.63;;;21.10;80.70;;;;;;7335027;19;110412;-78
2022/08/13 06:16:34;;;;;;;22.35;5.43;;;21.30;80.40;;;;;;7337136;19;110581;-79
2022/08/13 06:19:23;;;;;;;23.42;5.07;;;21.40;80.50;;;;;;7337414;19;113270;-78
2022/08/13 06:22:04;;;;;;;29.17;5.65;;;21.60;80.20;;;;;;7337005;19;109568;-81
2022/08/13 06:24:37;;;;;;;15.98;4.43;;;21.70;79.60;;;;;;7344284;19;109858;-78
2022/08/13 06:27:21;;;;;;;14.52;4.28;;;21.80;78.70;;;;;;7350114;19;111244;-78
2022/08/13 06:30:10;;;;;;;11.65;4.03;;;22.00;78.40;;;;;;7342688;19;112815;-81
2022/08/13 06:32:39;;;;;;;7.13;3.83;;;22.10;78.10;;;;;;7343456;19;109532;-71
2022/08/13 06:35:28;;;;;;;14.20;2.92;;;22.30;78.10;;;;;;7342919;19;110799;-73
2022/08/13 06:38:13;;;;;;;4.97;2.80;;;22.40;77.00;;;;;;7342066;19;110637;-72
2022/08/13 06:40:48;;;;;;;5.63;2.65;;;22.50;75.40;;;;;;7341807;19;110460;-73
2022/08/13 06:43:17;;;;;;;6.43;2.88;;;22.70;75.40;;;;;;7341116;19;110220;-72
2022/08/13 06:45:46;;;;;;;9.93;3.38;;;22.80;74.70;;;;;;7341640;19;109381;-73
2022/08/13 06:48:16;;;;;;;9.15;2.50;;;22.90;73.70;;;;;;7346549;19;111165;-72
2022/08/13 06:51:02;;;;;;;15.60;2.97;;;23.00;73.80;;;;;;7341925;19;110855;-73
2022/08/13 06:53:32;;;;;;;6.32;2.80;;;23.10;73.30;;;;;;7342223;19;111220;-73
2022/08/13 06:56:22;;;;;;;8.15;2.40;;;23.30;73.00;;;;;;7342222;19;109900;-73
2022/08/13 06:59:04;;;;;;;24.30;3.00;;;23.40;72.50;;;;;;7341584;19;110635;-68
2022/08/13 07:01:40;;;;;;;4.35;2.20;;;23.60;72.60;;;;;;7341574;19;110905;-68
2022/08/13 07:04:28;;;;;;;23.45;2.58;;;23.70;71.60;;;;;;7342989;19;110564;-68
2022/08/13 07:06:57;;;;;;;7.25;2.20;;;23.80;71.20;;;;;;7341601;19;110150;-68
2022/08/13 07:09:25;;;;;;;7.93;2.03;;;23.90;71.10;;;;;;7340666;19;110110;-67
2022/08/13 07:12:09;;;;;;;25.38;2.63;;;24.10;70.30;;;;;;7347156;19;109662;-69
2022/08/13 07:14:36;;;;;;;9.30;1.83;;;24.20;70.20;;;;;;7340741;19;111777;-69
2022/08/13 07:17:03;;;;;;;5.45;1.80;;;24.30;69.30;;;;;;7342160;19;109819;-69
2022/08/13 07:19:30;;;;;;;14.52;2.20;;;24.40;69.30;;;;;;7342189;19;110270;-69
2022/08/13 07:22:17;;;;;;;15.57;2.65;;;24.60;68.20;;;;;;7341246;19;112887;-69
2022/08/13 07:25:04;;;;;;;8.55;2.17;;;24.60;67.60;;;;;;7339414;19;110614;-69
2022/08/13 07:27:40;;;;;;;6.75;1.67;;;24.70;67.60;;;;;;7339966;19;109709;-69
2022/08/13 07:30:14;;;;;;;7.18;1.67;;;24.90;67.60;;;;;;7337990;19;111911;-69
2022/08/13 07:32:42;;;;;;;3.85;1.55;;;25.00;66.40;;;;;;7341893;19;109725;-69
2022/08/13 07:35:11;;;;;;;5.82;2.03;;;25.10;65.30;;;;;;7344791;19;110603;-68
2022/08/13 07:37:45;;;;;;;11.00;1.70;;;25.10;66.00;;;;;;7340226;19;110477;-68
2022/08/13 07:40:19;;;;;;;3.65;1.52;;;25.30;66.30;;;;;;7341033;19;110062;-68
2022/08/13 07:42:49;;;;;;;6.65;1.73;;;25.40;64.70;;;;;;7339405;19;110993;-68
2022/08/13 07:45:27;;;;;;;10.82;1.38;;;25.50;64.70;;;;;;7341908;19;109640;-68
2022/08/13 07:48:15;;;;;;;5.25;1.50;;;25.60;65.20;;;;;;7340219;19;111801;-68
2022/08/13 07:51:05;;;;;;;3.28;1.23;;;25.70;64.10;;;;;;7340048;19;109924;-68
2022/08/13 07:53:39;;;;;;;5.00;1.30;;;25.90;64.50;;;;;;7341508;19;109449;-69
2022/08/13 07:56:31;;;;;;;11.38;1.38;;;26.00;64.50;;;;;;7341205;19;111375;-69
2022/08/13 07:59:06;;;;;;;3.75;1.20;;;26.20;64.30;;;;;;7345263;19;110420;-69
2022/08/13 08:01:46;;;;;;;5.55;1.27;;;26.30;64.10;;;;;;7339635;19;110529;-69
2022/08/13 08:04:35;;;;;;;6.80;1.30;;;26.50;63.60;;;;;;7338251;19;111890;-69
2022/08/13 08:07:06;;;;;;;2.55;1.20;;;26.60;63.30;;;;;;7340584;19;110733;-68
2022/08/13 08:09:36;;;;;;;3.25;1.20;;;26.70;62.90;;;;;;7337871;19;112424;-69
2022/08/13 08:14:55;;;;;;;6.83;1.20;;;26.90;63.00;;;;;;7339466;19;110506;-69
2022/08/13 08:17:27;;;;;;;4.20;1.35;;;27.10;63.40;;;;;;7341206;19;109365;-69
2022/08/13 08:20:21;;;;;;;9.68;1.15;;;27.20;61.20;;;;;;7340549;19;113431;-68
2022/08/13 08:23:05;;;;;;;10.55;1.33;;;27.30;61.90;;;;;;7345867;19;109427;-68
2022/08/13 08:25:39;;;;;;;5.20;1.10;;;27.40;62.00;;;;;;7340761;19;110473;-69
2022/08/13 08:28:18;;;;;;;2.80;1.20;;;27.50;61.80;;;;;;7341617;19;109414;-69
2022/08/13 08:31:06;;;;;;;6.82;1.20;;;27.60;60.30;;;;;;7338684;19;112227;-69
2022/08/13 08:33:56;;;;;;;6.50;0.88;;;27.70;60.90;;;;;;7339994;19;112263;-70
2022/08/13 08:36:24;;;;;;;4.07;0.77;;;27.80;60.10;;;;;;7340900;19;109411;-70
2022/08/13 08:44:42;;;;;;;3.83;1.20;;;28.20;60.00;;;;;;7339557;19;109791;-69
2022/08/13 08:47:11;;;;;;;7.95;1.00;;;28.30;59.90;;;;;;7345657;19;110437;-70
2022/08/13 08:49:40;;;;;;;5.88;1.00;;;28.40;60.10;;;;;;7338754;19;111909;-69
2022/08/13 08:52:11;;;;;;;3.47;1.10;;;28.60;59.90;;;;;;7340258;19;109414;-69
2022/08/13 08:54:45;;;;;;;3.05;0.70;;;28.70;59.70;;;;;;7338325;19;110347;-69
2022/08/13 08:57:18;;;;;;;4.18;0.80;;;28.80;58.70;;;;;;7339031;19;109744;-69
2022/08/13 08:59:49;;;;;;;5.13;0.90;;;29.00;59.20;;;;;;7340518;19;109951;-70
2022/08/13 09:02:24;;;;;;;5.57;0.82;;;29.00;57.80;;;;;;7339114;19;111233;-70
2022/08/13 09:04:57;;;;;;;6.97;0.80;;;29.10;56.90;;;;;;7338881;19;109498;-70
2022/08/13 09:07:36;;;;;;;5.65;0.75;;;29.20;57.10;;;;;;7343699;19;109875;-69
2022/08/13 09:10:09;;;;;;;4.78;0.70;;;29.30;56.60;;;;;;7338215;19;109624;-69
2022/08/13 09:12:41;;;;;;;3.45;0.88;;;29.40;57.00;;;;;;7338087;19;110697;-68
2022/08/13 09:15:13;;;;;;;1.40;0.60;;;29.50;57.10;;;;;;7337732;19;111438;-68
2022/08/13 09:17:43;;;;;;;10.77;0.80;;;29.70;56.10;;;;;;7339559;19;110581;-69
2022/08/13 09:20:14;;;;;;;5.20;0.70;;;29.70;56.60;;;;;;7339686;19;110485;-68
2022/08/13 09:22:44;;;;;;;3.70;0.60;;;29.80;55.50;;;;;;7335994;19;112454;-69
2022/08/13 09:25:23;;;;;;;1.50;0.73;;;29.90;55.20;;;;;;7338368;19;109360;-69
2022/08/13 09:27:52;;;;;;;5.38;0.80;;;30.00;55.70;;;;;;7337589;19;111425;-69
2022/08/13 09:30:30;;;;;;;2.10;0.70;;;30.10;55.70;;;;;;7342520;19;111045;-68
2022/08/13 09:33:02;;;;;;;2.13;0.70;;;30.20;55.40;;;;;;7338982;19;110963;-69
2022/08/13 09:35:31;;;;;;;7.75;0.95;;;30.30;55.10;;;;;;7336404;19;110097;-69
2022/08/13 09:38:06;;;;;;;5.55;1.10;;;30.40;55.40;;;;;;7339019;19;109978;-69
2022/08/13 09:40:47;;;;;;;7.82;1.02;;;30.40;54.20;;;;;;7338623;19;109825;-69
2022/08/13 09:43:39;;;;;;;5.68;0.60;;;30.40;54.40;;;;;;7335561;19;112383;-69
2022/08/13 09:46:15;;;;;;;9.75;1.10;;;30.60;53.20;;;;;;7336119;19;109239;-69
2022/08/13 09:48:50;;;;;;;4.90;1.17;;;30.60;53.00;;;;;;7337197;19;110866;-69
2022/08/13 09:51:20;;;;;;;2.10;0.65;;;30.70;53.70;;;;;;7335289;19;110499;-69
2022/08/13 09:54:10;;;;;;;4.68;0.70;;;30.80;53.50;;;;;;7343025;19;109640;-69
2022/08/13 09:56:39;;;;;;;3.42;0.80;;;30.90;52.80;;;;;;7337745;19;112449;-69
2022/08/13 09:59:08;;;;;;;5.07;0.80;;;30.90;51.20;;;;;;7344409;19;109730;-69
2022/08/13 10:01:42;;;;;;;3.28;0.80;;;30.90;50.90;;;;;;7343022;19;110761;-69
2022/08/13 10:04:26;;;;;;;4.60;0.70;;;30.90;51.50;;;;;;7345101;19;110134;-68
2022/08/13 10:06:57;;;;;;;1.63;0.50;;;31.10;51.00;;;;;;7343388;19;110781;-72
2022/08/13 10:09:28;;;;;;;4.65;0.60;;;31.10;51.70;;;;;;7344781;19;110344;-70
2022/08/13 10:12:05;;;;;;;4.63;0.70;;;31.30;51.50;;;;;;7344311;19;110166;-68
2022/08/13 10:14:49;;;;;;;4.22;0.65;;;31.40;51.50;;;;;;7343632;19;109544;-68
2022/08/13 10:17:27;;;;;;;4.60;0.60;;;31.40;51.50;;;;;;7348124;19;109363;-67
2022/08/13 10:20:09;;;;;;;2.72;0.43;;;31.60;51.00;;;;;;7344785;19;109622;-71
2022/08/13 10:22:36;;;;;;;3.60;0.60;;;31.80;51.50;;;;;;7344366;19;109722;-70
2022/08/13 10:25:03;;;;;;;5.30;0.75;;;31.80;51.10;;;;;;7341658;19;110264;-68
2022/08/13 10:27:34;;;;;;;1.63;0.82;;;31.90;50.90;;;;;;7343094;19;109315;-69
2022/08/13 10:30:20;;;;;;;3.60;0.63;;;32.00;50.70;;;;;;7342669;19;109341;-70
2022/08/13 10:33:08;;;;;;;4.00;0.60;;;32.10;49.80;;;;;;7343847;19;110488;-69
2022/08/13 10:35:37;;;;;;;2.95;0.50;;;32.10;49.80;;;;;;7344484;19;109417;-70
2022/08/13 10:38:26;;;;;;;2.10;0.70;;;32.20;49.40;;;;;;7342837;19;109902;-69
2022/08/13 10:41:10;;;;;;;8.18;0.55;;;32.20;48.60;;;;;;7347384;19;110195;-68
2022/08/13 10:43:40;;;;;;;3.20;0.47;;;32.10;45.40;;;;;;7343536;19;110473;-68
2022/08/13 10:46:25;;;;;;;3.88;0.50;;;32.00;46.50;;;;;;7343216;19;112206;-69
2022/08/13 10:48:58;;;;;;;5.63;1.10;;;32.00;45.80;;;;;;7343218;19;109540;-68
2022/08/13 10:51:27;;;;;;;8.43;0.70;;;32.00;46.90;;;;;;7340220;19;109703;-70
2022/08/13 10:53:59;;;;;;;0.80;0.47;;;32.10;45.90;;;;;;7343441;19;110114;-69
2022/08/13 10:56:30;;;;;;;1.30;0.50;;;32.10;45.60;;;;;;7342943;19;109927;-70
2022/08/13 10:59:00;;;;;;;1.35;0.50;;;32.20;46.20;;;;;;7340787;19;110475;-69
2022/08/13 11:01:29;;;;;;;1.38;0.60;;;32.30;45.60;;;;;;7339796;19;111195;-69
2022/08/13 11:04:01;;;;;;;3.88;0.70;;;32.40;45.80;;;;;;7345494;19;109472;-70
2022/08/13 11:06:33;;;;;;;3.72;0.60;;;32.50;45.20;;;;;;7342054;19;110952;-70
2022/08/13 11:09:04;;;;;;;1.67;0.50;;;32.50;45.00;;;;;;7342359;19;110002;-69
2022/08/13 11:11:53;;;;;;;1.88;0.55;;;32.50;44.70;;;;;;7339895;19;112394;-69
2022/08/13 11:14:25;;;;;;;2.88;0.40;;;32.50;45.10;;;;;;7340737;19;110173;-69
2022/08/13 11:17:04;;;;;;;3.72;0.50;;;32.70;45.70;;;;;;7341498;19;111336;-69
2022/08/13 11:19:51;;;;;;;6.18;0.60;;;32.80;44.90;;;;;;7341437;19;112518;-69
2022/08/13 11:22:27;;;;;;;3.33;0.57;;;32.80;45.40;;;;;;7340536;19;110510;-69
2022/08/13 11:25:01;;;;;;;2.10;0.60;;;32.90;44.90;;;;;;7346914;19;110144;-70
2022/08/13 11:27:49;;;;;;;2.28;0.50;;;32.80;44.60;;;;;;7340658;19;113418;-69
2022/08/13 11:30:19;;;;;;;2.13;0.60;;;32.90;45.10;;;;;;7341172;19;109637;-69
2022/08/13 11:33:06;;;;;;;2.70;0.80;;;32.90;45.30;;;;;;7342536;19;110447;-70
2022/08/13 11:35:43;;;;;;;2.22;0.60;;;32.90;44.60;;;;;;7341796;19;111155;-69
2022/08/13 11:38:17;;;;;;;8.85;0.70;;;33.00;45.40;;;;;;7341205;19;109544;-69
2022/08/13 11:40:47;;;;;;;2.88;0.60;;;33.10;45.00;;;;;;7340783;19;110743;-70
2022/08/13 11:43:23;;;;;;;2.75;0.60;;;33.10;45.00;;;;;;7339316;19;110124;-70
2022/08/13 11:46:10;;;;;;;2.63;0.60;;;33.20;45.00;;;;;;7341283;19;110265;-69
2022/08/13 11:48:40;;;;;;;3.58;0.70;;;33.20;44.60;;;;;;7346499;19;111706;-70
2022/08/13 11:51:07;;;;;;;2.25;0.60;;;33.20;44.10;;;;;;7337828;19;111210;-70
2022/08/13 11:53:35;;;;;;;2.30;0.75;;;33.20;44.30;;;;;;7339198;19;110441;-69
2022/08/13 11:56:22;;;;;;;;;;;33.30;43.80;;;;;;7340154;19;113147;-70
2022/08/13 11:58:51;;;;;;;;;;;33.40;43.50;;;;;;7345032;19;110005;-70
2022/08/13 12:01:25;;;;;;;2.17;0.70;;;33.30;43.50;;;;;;7343937;19;110238;-70
2022/08/13 12:04:12;;;;;;;3.75;0.65;;;33.50;44.80;;;;;;7340880;19;110347;-69
2022/08/13 12:06:44;;;;;;;1.20;0.80;;;33.50;42.80;;;;;;7339454;19;109662;-70
2022/08/13 12:09:16;;;;;;;2.20;0.80;;;33.50;44.10;;;;;;7340977;19;109637;-70
2022/08/13 12:12:03;;;;;;;2.17;0.80;;;33.60;43.20;;;;;;7341412;19;112887;-70
2022/08/13 12:14:37;;;;;;;8.15;1.05;;;33.70;43.80;;;;;;7338631;19;110341;-70
2022/08/13 12:17:04;;;;;;;4.10;0.82;;;33.70;43.50;;;;;;7340209;19;110993;-69
2022/08/13 12:19:31;;;;;;;7.90;1.20;;;33.80;43.90;;;;;;7339065;19;110105;-70
2022/08/13 12:22:00;;;;;;;5.78;0.80;;;33.90;44.20;;;;;;7339893;19;110815;-70
2022/08/13 12:24:28;;;;;;;2.35;0.73;;;34.10;44.50;;;;;;7339029;19;111139;-70
2022/08/13 12:27:00;;;;;;;7.22;0.80;;;34.30;44.40;;;;;;7340483;19;110085;-70
2022/08/13 12:29:31;;;;;;;1.83;0.80;;;34.50;44.20;;;;;;7340928;19;110520;-69
2022/08/13 12:32:14;;;;;;;3.60;0.90;;;34.40;42.90;;;;;;7338037;19;111349;-70
2022/08/13 12:34:44;;;;;;;3.85;0.90;;;34.40;43.50;;;;;;7343369;19;111390;-71
2022/08/13 12:37:22;;;;;;;2.53;0.85;;;34.40;42.40;;;;;;7336269;19;110714;-71
2022/08/13 12:39:51;;;;;;;4.32;1.00;;;34.20;42.60;;;;;;7340185;19;109900;-70
2022/08/13 12:42:21;;;;;;;1.50;0.80;;;34.10;42.40;;;;;;7340339;19;109776;-70
2022/08/13 12:44:55;;;;;;;2.75;1.10;;;34.00;42.40;;;;;;7338345;19;111338;-70
2022/08/13 12:47:46;;;;;;;2.67;1.13;;;34.00;43.60;;;;;;7340268;19;109732;-70
2022/08/13 12:50:16;;;;;;;3.25;0.90;;;34.10;42.60;;;;;;7339688;19;110536;-70
2022/08/13 12:52:48;;;;;;;1.48;0.73;;;34.20;43.00;;;;;;7340078;19;111482;-70
2022/08/13 12:55:17;;;;;;;3.95;0.90;;;34.40;43.80;;;;;;7338620;19;109955;-71
2022/08/13 12:58:16;;;;;;;3.35;0.80;;;34.60;43.20;;;;;;7344528;19;110581;-70
2022/08/13 13:00:48;;;;;;;6.00;1.10;;;34.60;41.40;;;;;;7339873;19;109349;-70
2022/08/13 13:03:15;;;;;;;2.47;0.93;;;34.70;42.40;;;;;;7339247;19;114494;-71
2022/08/13 13:05:45;;;;;;;0.70;0.70;;;34.90;41.60;;;;;;7339055;19;110649;-70
2022/08/13 13:08:23;;;;;;;3.83;0.82;;;34.80;41.30;;;;;;7338397;19;111100;-71
2022/08/13 13:11:10;;;;;;;1.88;1.00;;;34.70;40.90;;;;;;7338581;19;110201;-71
2022/08/13 13:13:45;;;;;;;4.35;0.75;;;34.50;40.90;;;;;;7338752;19;111187;-71
2022/08/13 13:16:32;;;;;;;1.98;0.80;;;34.40;41.50;;;;;;7339514;19;109785;-71
2022/08/13 13:19:10;;;;;;;3.95;0.70;;;34.50;42.20;;;;;;7343545;19;109492;-71
2022/08/13 13:21:46;;;;;;;2.67;0.80;;;34.60;40.60;;;;;;7339336;19;109733;-71
2022/08/13 13:24:16;;;;;;;3.40;0.90;;;34.60;40.70;;;;;;7337987;19;110477;-71
2022/08/13 13:26:51;;;;;;;4.43;0.80;;;34.60;41.70;;;;;;7338105;19;110141;-70
2022/08/13 13:29:36;;;;;;;2.40;0.80;;;34.80;41.70;;;;;;7337812;19;109535;-71
2022/08/13 13:32:12;;;;;;;4.88;1.10;;;35.00;41.60;;;;;;7337290;19;110418;-71
2022/08/13 13:35:00;;;;;;;1.05;0.70;;;35.20;41.00;;;;;;7345223;19;113183;-70
2022/08/13 13:37:42;;;;;;;6.72;1.08;;;35.10;40.80;;;;;;7343739;19;109830;-76
2022/08/13 13:40:29;;;;;;;6.40;0.77;;;35.40;41.30;;;;;;7344433;19;113505;-76
2022/08/13 13:42:58;;;;;;;4.07;1.20;;;35.50;41.00;;;;;;7348711;19;111228;-74
2022/08/13 13:45:45;;;;;;;2.55;0.82;;;35.60;40.70;;;;;;7345636;19;111852;-76